Houn Maru — JG5489 — position and weather

sailwx.info

Track history (hours):
 
Tides and Currents Weather Stations Pressure Air Temp Water Temp Dewpoint Dewpoint Depression Visibility Wind Speed Wind Dir Waves Ship Positions

Houn Maru

Last reported at 2017-Aug-22 22:30 UTC. Time now 2017-Aug-22 22:39 UTC.
Position N 34°31' E 135°20'.

Length 91 m; draft 6 m.

Type: Tanker. MMSI: 431101172.

Date/timePositionNaut miles runAvg speedWind from/ knotsBaromVisibWave heightAir tempDewpointWater temp
2017-Aug-22 22:30N 34°31' E 135°20'1 0.9
2017-Aug-22 21:53N 34°32' E 135°20'0 0.0
2017-Aug-22 21:23N 34°32' E 135°20'0 0.0
2017-Aug-22 20:59N 34°32' E 135°20'0 0.0
2017-Aug-22 20:17N 34°32' E 135°20'0 0.0
2017-Aug-22 19:59N 34°32' E 135°20'0 0.0
2017-Aug-22 19:29N 34°32' E 135°20'0 0.1
2017-Aug-22 18:53N 34°32' E 135°20'0 0.0
2017-Aug-22 18:23N 34°32' E 135°20'0 0.1
2017-Aug-22 17:47N 34°32' E 135°20'0 0.0
2017-Aug-22 17:29N 34°32' E 135°20'0 0.1
2017-Aug-22 16:53N 34°32' E 135°20'0 0.0
2017-Aug-22 16:29N 34°32' E 135°20'0 0.0
2017-Aug-22 15:47N 34°32' E 135°20'0 0.0
2017-Aug-22 15:23N 34°32' E 135°20'0 0.0
2017-Aug-22 14:53N 34°32' E 135°20'0 0.0
2017-Aug-22 14:23N 34°32' E 135°20'0 0.0
2017-Aug-22 13:59N 34°32' E 135°20'0 0.1
2017-Aug-22 13:23N 34°32' E 135°20'0 0.0
2017-Aug-22 12:53N 34°32' E 135°20'0 0.1
2017-Aug-22 12:29N 34°32' E 135°20'0 0.0
2017-Aug-22 11:59N 34°32' E 135°20'0 0.0
2017-Aug-22 11:29N 34°32' E 135°20'0 0.0
2017-Aug-22 10:59N 34°32' E 135°20'0 0.1
2017-Aug-22 10:29N 34°32' E 135°20'0 0.0
2017-Aug-22 09:53N 34°32' E 135°20'0 0.1
2017-Aug-22 09:23N 34°32' E 135°20'0 0.0
2017-Aug-22 08:53N 34°32' E 135°20'0 0.1
2017-Aug-22 08:29N 34°32' E 135°20'0 0.1
2017-Aug-22 07:59N 34°32' E 135°20'1 2.8
2017-Aug-22 07:27N 34°32' E 135°22'3 6.6
2017-Aug-22 07:00N 34°33' E 135°26'0 0.0
2017-Aug-21 22:17N 34°33' E 135°26'0 0.2
2017-Aug-21 22:00N 34°33' E 135°26'1 3.0
2017-Aug-21 21:30N 34°33' E 135°24'4 7.3
2017-Aug-21 21:00N 34°32' E 135°20'0 0.2
2017-Aug-21 20:26N 34°32' E 135°20'0 0.0
2017-Aug-21 19:56N 34°32' E 135°20'0 0.0
2017-Aug-21 19:26N 34°32' E 135°20'0 0.0
2017-Aug-21 18:50N 34°32' E 135°20'0 0.1
2017-Aug-21 18:14N 34°32' E 135°20'0 0.0
2017-Aug-21 17:50N 34°32' E 135°20'0 0.0
2017-Aug-21 17:20N 34°32' E 135°20'0 0.0
2017-Aug-21 16:56N 34°32' E 135°20'0 0.0
2017-Aug-21 16:26N 34°32' E 135°20'0 0.0
2017-Aug-21 15:56N 34°32' E 135°20'0 0.0
2017-Aug-21 15:26N 34°32' E 135°20'0 0.0
2017-Aug-21 14:56N 34°32' E 135°20'0 0.0
2017-Aug-21 14:26N 34°32' E 135°20'0 0.1
2017-Aug-21 13:56N 34°32' E 135°20'0 0.1
2017-Aug-21 13:26N 34°32' E 135°20'0 0.0
2017-Aug-21 12:50N 34°32' E 135°20'0 0.1
2017-Aug-21 12:08N 34°32' E 135°20'0 0.0
2017-Aug-21 11:56N 34°32' E 135°20'0 0.0
2017-Aug-21 11:20N 34°32' E 135°20'0 0.0
2017-Aug-21 10:56N 34°32' E 135°20'0 0.0
2017-Aug-21 10:26N 34°32' E 135°20'0 0.0
2017-Aug-21 09:56N 34°32' E 135°20'0 0.0
2017-Aug-21 09:26N 34°32' E 135°20'0 0.0
2017-Aug-21 08:56N 34°32' E 135°20'0 0.0
2017-Aug-21 08:26N 34°32' E 135°20'0 0.0
2017-Aug-21 07:56N 34°32' E 135°20'0 0.0
2017-Aug-21 07:26N 34°32' E 135°20'1 2.6
2017-Aug-21 07:00N 34°31' E 135°19'612.4
2017-Aug-21 06:30N 34°27' E 135°13'3 6.4
2017-Aug-21 06:00N 34°24' E 135°13'1 0.2
2017-Aug-21 00:31N 34°25' E 135°14'0 0.0
2017-Aug-21 00:30N 34°25' E 135°14'0 0.7
2017-Aug-20 23:59N 34°25' E 135°14'3 7.2
2017-Aug-20 23:30N 34°25' E 135°10'611.0
2017-Aug-20 23:00N 34°29' E 135°15'5 9.2
2017-Aug-20 22:30N 34°32' E 135°20'0 0.6
2017-Aug-20 21:56N 34°32' E 135°20'0 0.0
2017-Aug-20 18:56N 34°32' E 135°20'0 0.0
2017-Aug-20 18:20N 34°32' E 135°20'0 0.0
2017-Aug-20 17:50N 34°32' E 135°20'0 0.0
2017-Aug-20 17:20N 34°32' E 135°20'0 0.0
2017-Aug-20 16:56N 34°32' E 135°20'0 0.0
2017-Aug-20 16:26N 34°32' E 135°20'0 0.1
2017-Aug-20 15:56N 34°32' E 135°20'0 0.0
2017-Aug-20 14:20N 34°32' E 135°20'0 0.0
2017-Aug-20 13:50N 34°32' E 135°20'0 0.0
2017-Aug-20 13:26N 34°32' E 135°20'0 0.0
2017-Aug-20 12:56N 34°32' E 135°20'0 0.0
2017-Aug-20 12:26N 34°32' E 135°20'0 0.1
2017-Aug-20 11:56N 34°32' E 135°20'0 0.0
2017-Aug-20 11:20N 34°32' E 135°20'0 0.0
2017-Aug-20 10:56N 34°32' E 135°20'0 0.0
2017-Aug-20 10:26N 34°32' E 135°20'0 0.2
2017-Aug-20 10:00N 34°32' E 135°20'4 7.8
2017-Aug-20 09:30N 34°33' E 135°24'1 0.5
2017-Aug-20 06:51N 34°33' E 135°26'0 0.0
2017-Aug-20 03:27N 34°33' E 135°26'0 0.0
2017-Aug-19 23:31N 34°33' E 135°26'0 0.0
2017-Aug-19 23:30N 34°33' E 135°26'1 1.2
2017-Aug-19 23:00N 34°33' E 135°25'4 8.3
2017-Aug-19 22:30N 34°32' E 135°20'1 1.0
2017-Aug-19 21:57N 34°32' E 135°19'0 0.0
2017-Aug-19 21:09N 34°32' E 135°19'0 0.0
2017-Aug-19 20:57N 34°32' E 135°19'0 0.0
2017-Aug-19 20:27N 34°32' E 135°19'0 0.0
2017-Aug-19 19:57N 34°32' E 135°19'0 0.0
2017-Aug-19 19:27N 34°32' E 135°19'0 0.0
2017-Aug-19 18:57N 34°32' E 135°19'0 0.0
2017-Aug-19 18:27N 34°32' E 135°19'0 0.0
2017-Aug-19 17:57N 34°32' E 135°19'0 0.0
2017-Aug-19 17:15N 34°32' E 135°19'0 0.0
2017-Aug-19 16:57N 34°32' E 135°19'0 0.0
2017-Aug-19 16:27N 34°32' E 135°19'0 0.0
2017-Aug-19 15:57N 34°32' E 135°19'0 0.0
2017-Aug-19 15:27N 34°32' E 135°19'0 0.0
2017-Aug-19 14:57N 34°32' E 135°19'0 0.0
2017-Aug-19 13:51N 34°32' E 135°19'0 0.0
2017-Aug-19 13:27N 34°32' E 135°19'0 0.0
2017-Aug-19 12:57N 34°32' E 135°19'0 0.0
2017-Aug-19 12:27N 34°32' E 135°19'0 0.1
2017-Aug-19 11:57N 34°32' E 135°19'0 0.0
2017-Aug-19 11:27N 34°32' E 135°19'0 0.1
2017-Aug-19 10:57N 34°32' E 135°19'0 0.0
2017-Aug-19 10:21N 34°32' E 135°19'0 0.0
2017-Aug-19 09:57N 34°32' E 135°19'3 6.8
2017-Aug-19 09:29N 34°35' E 135°22'4 8.7
2017-Aug-19 09:00N 34°35' E 135°27'0 0.0
2017-Aug-18 09:04N 34°35' E 135°27'0 0.0
2017-Aug-18 09:00N 34°35' E 135°27'4 7.7
2017-Aug-18 08:30N 34°36' E 135°22'612.6
2017-Aug-18 08:00N 34°31' E 135°17'713.2
2017-Aug-18 07:30N 34°26' E 135°12'2 0.4
2017-Aug-18 02:04N 34°25' E 135°14'0 0.1
2017-Aug-18 01:54N 34°25' E 135°14'0 0.4
2017-Aug-18 01:29N 34°25' E 135°14'4 7.2
2017-Aug-18 01:00N 34°23' E 135°11'0 0.3
2017-Aug-17 23:45N 34°23' E 135°10'0 0.1
2017-Aug-17 23:21N 34°23' E 135°10'0 0.0
2017-Aug-17 21:21N 34°23' E 135°10'0 0.0
2017-Aug-17 20:57N 34°23' E 135°10'0 0.0
2017-Aug-17 20:27N 34°23' E 135°10'0 0.0
2017-Aug-17 19:51N 34°23' E 135°10'0 0.0
2017-Aug-17 19:27N 34°23' E 135°10'0 0.0
2017-Aug-17 18:57N 34°23' E 135°10'0 0.0
2017-Aug-17 17:27N 34°23' E 135°10'0 0.1
2017-Aug-17 16:39N 34°23' E 135°10'0 0.0
2017-Aug-17 16:27N 34°23' E 135°10'0 0.1
2017-Aug-17 15:39N 34°23' E 135°10'0 0.0
2017-Aug-17 15:27N 34°23' E 135°10'0 0.1
2017-Aug-17 14:57N 34°23' E 135°10'1 2.0
2017-Aug-17 14:30N 34°24' E 135°10'611.2
2017-Aug-17 14:00N 34°29' E 135°07'611.6
2017-Aug-17 13:30N 34°34' E 135°04'5 0.2
2017-Aug-16 06:48N 34°37' E 134°59'414.2
2017-Aug-16 06:30N 34°36' E 135°04'612.1
2017-Aug-16 06:00N 34°30' E 135°08'612.9
2017-Aug-16 05:30N 34°25' E 135°11'3 0.5
2017-Aug-16 00:22N 34°25' E 135°14'1 3.4
2017-Aug-16 00:00N 34°24' E 135°13'3 5.3
2017-Aug-15 23:26N 34°23' E 135°10'0 0.0
2017-Aug-15 22:56N 34°23' E 135°10'0 0.0
2017-Aug-15 22:20N 34°23' E 135°10'0 0.0
2017-Aug-15 21:50N 34°23' E 135°10'0 0.0
2017-Aug-15 21:26N 34°23' E 135°10'0 0.0
2017-Aug-15 20:56N 34°23' E 135°10'0 0.0
2017-Aug-15 20:26N 34°23' E 135°10'0 0.0
2017-Aug-15 19:56N 34°23' E 135°10'0 0.0
2017-Aug-15 19:26N 34°23' E 135°10'0 0.0
2017-Aug-15 18:56N 34°23' E 135°10'0 0.0
2017-Aug-15 18:26N 34°23' E 135°10'0 0.0
2017-Aug-15 17:56N 34°23' E 135°10'0 0.1
2017-Aug-15 17:08N 34°23' E 135°10'0 0.0
2017-Aug-15 16:56N 34°23' E 135°10'0 0.1
2017-Aug-15 16:26N 34°23' E 135°10'0 0.0
2017-Aug-15 15:50N 34°23' E 135°10'0 0.0
2017-Aug-15 15:20N 34°23' E 135°10'0 0.0
2017-Aug-15 14:50N 34°23' E 135°10'0 0.0
2017-Aug-15 14:14N 34°23' E 135°10'0 0.0
2017-Aug-15 13:56N 34°23' E 135°10'0 0.0
2017-Aug-15 12:24N 34°23' E 135°10'4 9.9
2017-Aug-15 12:00N 34°26' E 135°08'612.3
2017-Aug-15 11:30N 34°32' E 135°05'613.0
2017-Aug-15 11:00N 34°37' E 135°01'4 0.2
2017-Aug-14 07:14N 34°36' E 134°56'412.1
2017-Aug-14 06:55N 34°38' E 134°60'512.3
2017-Aug-14 06:29N 34°35' E 135°06'612.6
2017-Aug-14 06:00N 34°29' E 135°08'612.3
2017-Aug-14 05:30N 34°24' E 135°12'2 0.4
2017-Aug-14 00:19N 34°25' E 135°14'0 1.0
2017-Aug-14 00:00N 34°25' E 135°14'3 6.8
2017-Aug-13 23:31N 34°25' E 135°10'510.4
2017-Aug-13 23:00N 34°29' E 135°15'5 9.5
2017-Aug-13 22:30N 34°32' E 135°19'0 0.2
2017-Aug-13 21:49N 34°32' E 135°19'0 0.0
2017-Aug-13 21:25N 34°32' E 135°19'0 0.0
2017-Aug-13 20:49N 34°32' E 135°19'0 0.0
2017-Aug-13 20:25N 34°32' E 135°19'0 0.0
2017-Aug-13 19:55N 34°32' E 135°19'0 0.0
2017-Aug-13 19:25N 34°32' E 135°19'0 0.0
2017-Aug-13 19:01N 34°32' E 135°19'0 0.0
2017-Aug-13 18:25N 34°32' E 135°19'0 0.0
2017-Aug-13 18:01N 34°32' E 135°19'0 0.0
2017-Aug-13 17:25N 34°32' E 135°19'0 0.0
2017-Aug-13 17:01N 34°32' E 135°19'0 0.0
2017-Aug-13 16:31N 34°32' E 135°19'0 0.0
2017-Aug-13 16:01N 34°32' E 135°19'0 0.0
2017-Aug-13 15:31N 34°32' E 135°19'0 0.0
2017-Aug-13 15:01N 34°32' E 135°19'0 0.0
2017-Aug-13 14:31N 34°32' E 135°19'0 0.0
2017-Aug-13 14:01N 34°32' E 135°19'0 0.0
2017-Aug-13 13:31N 34°32' E 135°19'0 0.0
2017-Aug-13 13:01N 34°32' E 135°19'0 0.1
2017-Aug-13 12:31N 34°32' E 135°19'0 0.0
2017-Aug-13 11:49N 34°32' E 135°19'0 0.0
2017-Aug-13 11:25N 34°32' E 135°19'0 0.0
2017-Aug-13 11:01N 34°32' E 135°19'0 0.0
2017-Aug-13 10:25N 34°32' E 135°19'0 0.0
2017-Aug-13 09:55N 34°32' E 135°19'0 0.0
2017-Aug-13 09:31N 34°32' E 135°19'0 0.0
2017-Aug-13 09:01N 34°32' E 135°19'2 3.5
2017-Aug-13 08:30N 34°33' E 135°21'4 0.4
2017-Aug-12 23:10N 34°33' E 135°26'0 0.3
2017-Aug-12 23:00N 34°33' E 135°26'3 5.6
2017-Aug-12 22:30N 34°33' E 135°22'  
Track history (hours):
 
Tides and Currents Weather Stations Pressure Air Temp Water Temp Dewpoint Dewpoint Depression Visibility Wind Speed Wind Dir Waves Ship Positions

Houn Maru

Last reported at 2017-Aug-22 22:30 UTC. Time now 2017-Aug-22 22:39 UTC.
Position N 34°31' E 135°20'.

Length 91 m; draft 6 m.

Type: Tanker. MMSI: 431101172.

Date/timePositionNaut miles runAvg speedWind from/ knotsBaromVisibWave heightAir tempDewpointWater temp
2017-Aug-22 22:30N 34°31' E 135°20'1 0.9
2017-Aug-22 21:53N 34°32' E 135°20'0 0.0
2017-Aug-22 21:23N 34°32' E 135°20'0 0.0
2017-Aug-22 20:59N 34°32' E 135°20'0 0.0
2017-Aug-22 20:17N 34°32' E 135°20'0 0.0
2017-Aug-22 19:59N 34°32' E 135°20'0 0.0
2017-Aug-22 19:29N 34°32' E 135°20'0 0.1
2017-Aug-22 18:53N 34°32' E 135°20'0 0.0
2017-Aug-22 18:23N 34°32' E 135°20'0 0.1
2017-Aug-22 17:47N 34°32' E 135°20'0 0.0
2017-Aug-22 17:29N 34°32' E 135°20'0 0.1
2017-Aug-22 16:53N 34°32' E 135°20'0 0.0
2017-Aug-22 16:29N 34°32' E 135°20'0 0.0
2017-Aug-22 15:47N 34°32' E 135°20'0 0.0
2017-Aug-22 15:23N 34°32' E 135°20'0 0.0
2017-Aug-22 14:53N 34°32' E 135°20'0 0.0
2017-Aug-22 14:23N 34°32' E 135°20'0 0.0
2017-Aug-22 13:59N 34°32' E 135°20'0 0.1
2017-Aug-22 13:23N 34°32' E 135°20'0 0.0
2017-Aug-22 12:53N 34°32' E 135°20'0 0.1
2017-Aug-22 12:29N 34°32' E 135°20'0 0.0
2017-Aug-22 11:59N 34°32' E 135°20'0 0.0
2017-Aug-22 11:29N 34°32' E 135°20'0 0.0
2017-Aug-22 10:59N 34°32' E 135°20'0 0.1
2017-Aug-22 10:29N 34°32' E 135°20'0 0.0
2017-Aug-22 09:53N 34°32' E 135°20'0 0.1
2017-Aug-22 09:23N 34°32' E 135°20'0 0.0
2017-Aug-22 08:53N 34°32' E 135°20'0 0.1
2017-Aug-22 08:29N 34°32' E 135°20'0 0.1
2017-Aug-22 07:59N 34°32' E 135°20'1 2.8
2017-Aug-22 07:27N 34°32' E 135°22'3 6.6
2017-Aug-22 07:00N 34°33' E 135°26'0 0.0
2017-Aug-21 22:17N 34°33' E 135°26'0 0.2
2017-Aug-21 22:00N 34°33' E 135°26'1 3.0
2017-Aug-21 21:30N 34°33' E 135°24'4 7.3
2017-Aug-21 21:00N 34°32' E 135°20'0 0.2
2017-Aug-21 20:26N 34°32' E 135°20'0 0.0
2017-Aug-21 19:56N 34°32' E 135°20'0 0.0
2017-Aug-21 19:26N 34°32' E 135°20'0 0.0
2017-Aug-21 18:50N 34°32' E 135°20'0 0.1
2017-Aug-21 18:14N 34°32' E 135°20'0 0.0
2017-Aug-21 17:50N 34°32' E 135°20'0 0.0
2017-Aug-21 17:20N 34°32' E 135°20'0 0.0
2017-Aug-21 16:56N 34°32' E 135°20'0 0.0
2017-Aug-21 16:26N 34°32' E 135°20'0 0.0
2017-Aug-21 15:56N 34°32' E 135°20'0 0.0
2017-Aug-21 15:26N 34°32' E 135°20'0 0.0
2017-Aug-21 14:56N 34°32' E 135°20'0 0.0
2017-Aug-21 14:26N 34°32' E 135°20'0 0.1
2017-Aug-21 13:56N 34°32' E 135°20'0 0.1
2017-Aug-21 13:26N 34°32' E 135°20'0 0.0
2017-Aug-21 12:50N 34°32' E 135°20'0 0.1
2017-Aug-21 12:08N 34°32' E 135°20'0 0.0
2017-Aug-21 11:56N 34°32' E 135°20'0 0.0
2017-Aug-21 11:20N 34°32' E 135°20'0 0.0
2017-Aug-21 10:56N 34°32' E 135°20'0 0.0
2017-Aug-21 10:26N 34°32' E 135°20'0 0.0
2017-Aug-21 09:56N 34°32' E 135°20'0 0.0
2017-Aug-21 09:26N 34°32' E 135°20'0 0.0
2017-Aug-21 08:56N 34°32' E 135°20'0 0.0
2017-Aug-21 08:26N 34°32' E 135°20'0 0.0
2017-Aug-21 07:56N 34°32' E 135°20'0 0.0
2017-Aug-21 07:26N 34°32' E 135°20'1 2.6
2017-Aug-21 07:00N 34°31' E 135°19'612.4
2017-Aug-21 06:30N 34°27' E 135°13'3 6.4
2017-Aug-21 06:00N 34°24' E 135°13'1 0.2
2017-Aug-21 00:31N 34°25' E 135°14'0 0.0
2017-Aug-21 00:30N 34°25' E 135°14'0 0.7
2017-Aug-20 23:59N 34°25' E 135°14'3 7.2
2017-Aug-20 23:30N 34°25' E 135°10'611.0
2017-Aug-20 23:00N 34°29' E 135°15'5 9.2
2017-Aug-20 22:30N 34°32' E 135°20'0 0.6
2017-Aug-20 21:56N 34°32' E 135°20'0 0.0
2017-Aug-20 18:56N 34°32' E 135°20'0 0.0
2017-Aug-20 18:20N 34°32' E 135°20'0 0.0
2017-Aug-20 17:50N 34°32' E 135°20'0 0.0
2017-Aug-20 17:20N 34°32' E 135°20'0 0.0
2017-Aug-20 16:56N 34°32' E 135°20'0 0.0
2017-Aug-20 16:26N 34°32' E 135°20'0 0.1
2017-Aug-20 15:56N 34°32' E 135°20'0 0.0
2017-Aug-20 14:20N 34°32' E 135°20'0 0.0
2017-Aug-20 13:50N 34°32' E 135°20'0 0.0
2017-Aug-20 13:26N 34°32' E 135°20'0 0.0
2017-Aug-20 12:56N 34°32' E 135°20'0 0.0
2017-Aug-20 12:26N 34°32' E 135°20'0 0.1
2017-Aug-20 11:56N 34°32' E 135°20'0 0.0
2017-Aug-20 11:20N 34°32' E 135°20'0 0.0
2017-Aug-20 10:56N 34°32' E 135°20'0 0.0
2017-Aug-20 10:26N 34°32' E 135°20'0 0.2
2017-Aug-20 10:00N 34°32' E 135°20'4 7.8
2017-Aug-20 09:30N 34°33' E 135°24'1 0.5
2017-Aug-20 06:51N 34°33' E 135°26'0 0.0
2017-Aug-20 03:27N 34°33' E 135°26'0 0.0
2017-Aug-19 23:31N 34°33' E 135°26'0 0.0
2017-Aug-19 23:30N 34°33' E 135°26'1 1.2
2017-Aug-19 23:00N 34°33' E 135°25'4 8.3
2017-Aug-19 22:30N 34°32' E 135°20'1 1.0
2017-Aug-19 21:57N 34°32' E 135°19'0 0.0
2017-Aug-19 21:09N 34°32' E 135°19'0 0.0
2017-Aug-19 20:57N 34°32' E 135°19'0 0.0
2017-Aug-19 20:27N 34°32' E 135°19'0 0.0
2017-Aug-19 19:57N 34°32' E 135°19'0 0.0
2017-Aug-19 19:27N 34°32' E 135°19'0 0.0
2017-Aug-19 18:57N 34°32' E 135°19'0 0.0
2017-Aug-19 18:27N 34°32' E 135°19'0 0.0
2017-Aug-19 17:57N 34°32' E 135°19'0 0.0
2017-Aug-19 17:15N 34°32' E 135°19'0 0.0
2017-Aug-19 16:57N 34°32' E 135°19'0 0.0
2017-Aug-19 16:27N 34°32' E 135°19'0 0.0
2017-Aug-19 15:57N 34°32' E 135°19'0 0.0
2017-Aug-19 15:27N 34°32' E 135°19'0 0.0
2017-Aug-19 14:57N 34°32' E 135°19'0 0.0
2017-Aug-19 13:51N 34°32' E 135°19'0 0.0
2017-Aug-19 13:27N 34°32' E 135°19'0 0.0
2017-Aug-19 12:57N 34°32' E 135°19'0 0.0
2017-Aug-19 12:27N 34°32' E 135°19'0 0.1
2017-Aug-19 11:57N 34°32' E 135°19'0 0.0
2017-Aug-19 11:27N 34°32' E 135°19'0 0.1
2017-Aug-19 10:57N 34°32' E 135°19'0 0.0
2017-Aug-19 10:21N 34°32' E 135°19'0 0.0
2017-Aug-19 09:57N 34°32' E 135°19'3 6.8
2017-Aug-19 09:29N 34°35' E 135°22'4 8.7
2017-Aug-19 09:00N 34°35' E 135°27'0 0.0
2017-Aug-18 09:04N 34°35' E 135°27'0 0.0
2017-Aug-18 09:00N 34°35' E 135°27'4 7.7
2017-Aug-18 08:30N 34°36' E 135°22'612.6
2017-Aug-18 08:00N 34°31' E 135°17'713.2
2017-Aug-18 07:30N 34°26' E 135°12'2 0.4
2017-Aug-18 02:04N 34°25' E 135°14'0 0.1
2017-Aug-18 01:54N 34°25' E 135°14'0 0.4
2017-Aug-18 01:29N 34°25' E 135°14'4 7.2
2017-Aug-18 01:00N 34°23' E 135°11'0 0.3
2017-Aug-17 23:45N 34°23' E 135°10'0 0.1
2017-Aug-17 23:21N 34°23' E 135°10'0 0.0
2017-Aug-17 21:21N 34°23' E 135°10'0 0.0
2017-Aug-17 20:57N 34°23' E 135°10'0 0.0
2017-Aug-17 20:27N 34°23' E 135°10'0 0.0
2017-Aug-17 19:51N 34°23' E 135°10'0 0.0
2017-Aug-17 19:27N 34°23' E 135°10'0 0.0
2017-Aug-17 18:57N 34°23' E 135°10'0 0.0
2017-Aug-17 17:27N 34°23' E 135°10'0 0.1
2017-Aug-17 16:39N 34°23' E 135°10'0 0.0
2017-Aug-17 16:27N 34°23' E 135°10'0 0.1
2017-Aug-17 15:39N 34°23' E 135°10'0 0.0
2017-Aug-17 15:27N 34°23' E 135°10'0 0.1
2017-Aug-17 14:57N 34°23' E 135°10'1 2.0
2017-Aug-17 14:30N 34°24' E 135°10'611.2
2017-Aug-17 14:00N 34°29' E 135°07'611.6
2017-Aug-17 13:30N 34°34' E 135°04'5 0.2
2017-Aug-16 06:48N 34°37' E 134°59'414.2
2017-Aug-16 06:30N 34°36' E 135°04'612.1
2017-Aug-16 06:00N 34°30' E 135°08'612.9
2017-Aug-16 05:30N 34°25' E 135°11'3 0.5
2017-Aug-16 00:22N 34°25' E 135°14'1 3.4
2017-Aug-16 00:00N 34°24' E 135°13'3 5.3
2017-Aug-15 23:26N 34°23' E 135°10'0 0.0
2017-Aug-15 22:56N 34°23' E 135°10'0 0.0
2017-Aug-15 22:20N 34°23' E 135°10'0 0.0
2017-Aug-15 21:50N 34°23' E 135°10'0 0.0
2017-Aug-15 21:26N 34°23' E 135°10'0 0.0
2017-Aug-15 20:56N 34°23' E 135°10'0 0.0
2017-Aug-15 20:26N 34°23' E 135°10'0 0.0
2017-Aug-15 19:56N 34°23' E 135°10'0 0.0
2017-Aug-15 19:26N 34°23' E 135°10'0 0.0
2017-Aug-15 18:56N 34°23' E 135°10'0 0.0
2017-Aug-15 18:26N 34°23' E 135°10'0 0.0
2017-Aug-15 17:56N 34°23' E 135°10'0 0.1
2017-Aug-15 17:08N 34°23' E 135°10'0 0.0
2017-Aug-15 16:56N 34°23' E 135°10'0 0.1
2017-Aug-15 16:26N 34°23' E 135°10'0 0.0
2017-Aug-15 15:50N 34°23' E 135°10'0 0.0
2017-Aug-15 15:20N 34°23' E 135°10'0 0.0
2017-Aug-15 14:50N 34°23' E 135°10'0 0.0
2017-Aug-15 14:14N 34°23' E 135°10'0 0.0
2017-Aug-15 13:56N 34°23' E 135°10'0 0.0
2017-Aug-15 12:24N 34°23' E 135°10'4 9.9
2017-Aug-15 12:00N 34°26' E 135°08'612.3
2017-Aug-15 11:30N 34°32' E 135°05'613.0
2017-Aug-15 11:00N 34°37' E 135°01'4 0.2
2017-Aug-14 07:14N 34°36' E 134°56'412.1
2017-Aug-14 06:55N 34°38' E 134°60'512.3
2017-Aug-14 06:29N 34°35' E 135°06'612.6
2017-Aug-14 06:00N 34°29' E 135°08'612.3
2017-Aug-14 05:30N 34°24' E 135°12'2 0.4
2017-Aug-14 00:19N 34°25' E 135°14'0 1.0
2017-Aug-14 00:00N 34°25' E 135°14'3 6.8
2017-Aug-13 23:31N 34°25' E 135°10'510.4
2017-Aug-13 23:00N 34°29' E 135°15'5 9.5
2017-Aug-13 22:30N 34°32' E 135°19'0 0.2
2017-Aug-13 21:49N 34°32' E 135°19'0 0.0
2017-Aug-13 21:25N 34°32' E 135°19'0 0.0
2017-Aug-13 20:49N 34°32' E 135°19'0 0.0
2017-Aug-13 20:25N 34°32' E 135°19'0 0.0
2017-Aug-13 19:55N 34°32' E 135°19'0 0.0
2017-Aug-13 19:25N 34°32' E 135°19'0 0.0
2017-Aug-13 19:01N 34°32' E 135°19'0 0.0
2017-Aug-13 18:25N 34°32' E 135°19'0 0.0
2017-Aug-13 18:01N 34°32' E 135°19'0 0.0
2017-Aug-13 17:25N 34°32' E 135°19'0 0.0
2017-Aug-13 17:01N 34°32' E 135°19'0 0.0
2017-Aug-13 16:31N 34°32' E 135°19'0 0.0
2017-Aug-13 16:01N 34°32' E 135°19'0 0.0
2017-Aug-13 15:31N 34°32' E 135°19'0 0.0
2017-Aug-13 15:01N 34°32' E 135°19'0 0.0
2017-Aug-13 14:31N 34°32' E 135°19'0 0.0
2017-Aug-13 14:01N 34°32' E 135°19'0 0.0
2017-Aug-13 13:31N 34°32' E 135°19'0 0.0
2017-Aug-13 13:01N 34°32' E 135°19'0 0.1
2017-Aug-13 12:31N 34°32' E 135°19'0 0.0
2017-Aug-13 11:49N 34°32' E 135°19'0 0.0
2017-Aug-13 11:25N 34°32' E 135°19'0 0.0
2017-Aug-13 11:01N 34°32' E 135°19'0 0.0
2017-Aug-13 10:25N 34°32' E 135°19'0 0.0
2017-Aug-13 09:55N 34°32' E 135°19'0 0.0
2017-Aug-13 09:31N 34°32' E 135°19'0 0.0
2017-Aug-13 09:01N 34°32' E 135°19'2 3.5
2017-Aug-13 08:30N 34°33' E 135°21'4 0.4
2017-Aug-12 23:10N 34°33' E 135°26'0 0.3
2017-Aug-12 23:00N 34°33' E 135°26'3 5.6
2017-Aug-12 22:30N 34°33' E 135°22'  

Dump ship's entire track history